sensor_id;sensor_type;location;lat;lon;timestamp;P1;durP1;ratioP1;P2;durP2;ratioP2
9968;SDS011;5025;48.890;9.278;2022-12-11T00:00:17;16.50;;;13.37;;
9968;SDS011;5025;48.890;9.278;2022-12-11T00:02:43;14.57;;;12.80;;
9968;SDS011;5025;48.890;9.278;2022-12-11T00:05:08;15.23;;;13.30;;
9968;SDS011;5025;48.890;9.278;2022-12-11T00:07:33;14.00;;;12.03;;
9968;SDS011;5025;48.890;9.278;2022-12-11T00:09:59;12.33;;;11.03;;
9968;SDS011;5025;48.890;9.278;2022-12-11T00:12:25;13.90;;;12.40;;
9968;SDS011;5025;48.890;9.278;2022-12-11T00:14:50;16.67;;;13.93;;
9968;SDS011;5025;48.890;9.278;2022-12-11T00:17:15;17.60;;;15.17;;
9968;SDS011;5025;48.890;9.278;2022-12-11T00:19:40;16.13;;;13.60;;
9968;SDS011;5025;48.890;9.278;2022-12-11T00:22:06;15.17;;;13.27;;
9968;SDS011;5025;48.890;9.278;2022-12-11T00:24:32;15.90;;;13.73;;
9968;SDS011;5025;48.890;9.278;2022-12-11T00:26:57;14.30;;;12.63;;
9968;SDS011;5025;48.890;9.278;2022-12-11T00:29:23;16.97;;;13.20;;
9968;SDS011;5025;48.890;9.278;2022-12-11T00:31:48;14.40;;;12.67;;
9968;SDS011;5025;48.890;9.278;2022-12-11T00:34:13;12.93;;;11.33;;
9968;SDS011;5025;48.890;9.278;2022-12-11T00:36:38;13.27;;;11.57;;
9968;SDS011;5025;48.890;9.278;2022-12-11T00:39:04;13.43;;;12.03;;
9968;SDS011;5025;48.890;9.278;2022-12-11T00:41:30;14.60;;;12.43;;
9968;SDS011;5025;48.890;9.278;2022-12-11T00:43:56;12.97;;;11.67;;
9968;SDS011;5025;48.890;9.278;2022-12-11T00:46:21;13.70;;;12.13;;
9968;SDS011;5025;48.890;9.278;2022-12-11T00:48:47;13.00;;;11.67;;
9968;SDS011;5025;48.890;9.278;2022-12-11T00:51:14;13.10;;;11.73;;
9968;SDS011;5025;48.890;9.278;2022-12-11T00:53:40;12.27;;;10.90;;
9968;SDS011;5025;48.890;9.278;2022-12-11T00:56:09;13.27;;;11.87;;
9968;SDS011;5025;48.890;9.278;2022-12-11T00:58:35;12.70;;;11.37;;
9968;SDS011;5025;48.890;9.278;2022-12-11T01:01:11;13.07;;;11.63;;
9968;SDS011;5025;48.890;9.278;2022-12-11T01:03:39;12.93;;;11.40;;
9968;SDS011;5025;48.890;9.278;2022-12-11T01:06:04;12.57;;;11.27;;
9968;SDS011;5025;48.890;9.278;2022-12-11T01:08:30;12.30;;;11.00;;
9968;SDS011;5025;48.890;9.278;2022-12-11T01:11:06;13.50;;;11.87;;
9968;SDS011;5025;48.890;9.278;2022-12-11T01:13:34;12.53;;;11.10;;
9968;SDS011;5025;48.890;9.278;2022-12-11T01:15:59;13.50;;;11.50;;
9968;SDS011;5025;48.890;9.278;2022-12-11T01:18:39;12.60;;;11.30;;
9968;SDS011;5025;48.890;9.278;2022-12-11T01:21:09;14.23;;;12.50;;
9968;SDS011;5025;48.890;9.278;2022-12-11T01:23:36;12.67;;;11.37;;
9968;SDS011;5025;48.890;9.278;2022-12-11T01:26:06;14.70;;;13.10;;
9968;SDS011;5025;48.890;9.278;2022-12-11T01:28:34;13.07;;;11.67;;
9968;SDS011;5025;48.890;9.278;2022-12-11T01:30:59;12.73;;;11.43;;
9968;SDS011;5025;48.890;9.278;2022-12-11T01:33:25;13.13;;;11.47;;
9968;SDS011;5025;48.890;9.278;2022-12-11T01:35:51;13.40;;;12.00;;
9968;SDS011;5025;48.890;9.278;2022-12-11T01:38:16;12.07;;;10.77;;
9968;SDS011;5025;48.890;9.278;2022-12-11T01:40:47;11.93;;;10.73;;
9968;SDS011;5025;48.890;9.278;2022-12-11T01:43:13;12.07;;;10.77;;
9968;SDS011;5025;48.890;9.278;2022-12-11T01:45:40;12.90;;;11.53;;
9968;SDS011;5025;48.890;9.278;2022-12-11T01:48:10;12.03;;;10.73;;
9968;SDS011;5025;48.890;9.278;2022-12-11T01:50:43;14.80;;;13.13;;
9968;SDS011;5025;48.890;9.278;2022-12-11T01:53:12;14.83;;;12.87;;
9968;SDS011;5025;48.890;9.278;2022-12-11T01:55:42;15.47;;;13.50;;
9968;SDS011;5025;48.890;9.278;2022-12-11T01:58:10;18.13;;;15.83;;
9968;SDS011;5025;48.890;9.278;2022-12-11T02:00:36;16.40;;;14.47;;
9968;SDS011;5025;48.890;9.278;2022-12-11T02:03:02;17.50;;;15.60;;
9968;SDS011;5025;48.890;9.278;2022-12-11T02:05:27;18.40;;;15.37;;
9968;SDS011;5025;48.890;9.278;2022-12-11T02:07:54;16.57;;;14.63;;
9968;SDS011;5025;48.890;9.278;2022-12-11T02:10:29;16.83;;;15.03;;
9968;SDS011;5025;48.890;9.278;2022-12-11T02:13:17;16.67;;;14.60;;
9968;SDS011;5025;48.890;9.278;2022-12-11T02:18:45;17.17;;;14.83;;
9968;SDS011;5025;48.890;9.278;2022-12-11T02:21:24;18.67;;;15.47;;
9968;SDS011;5025;48.890;9.278;2022-12-11T02:23:56;18.27;;;14.97;;
9968;SDS011;5025;48.890;9.278;2022-12-11T02:29:41;16.87;;;14.20;;
9968;SDS011;5025;48.890;9.278;2022-12-11T02:32:46;16.20;;;14.50;;
9968;SDS011;5025;48.890;9.278;2022-12-11T02:35:21;18.47;;;15.13;;
9968;SDS011;5025;48.890;9.278;2022-12-11T02:37:48;17.87;;;15.57;;
9968;SDS011;5025;48.890;9.278;2022-12-11T02:40:21;16.43;;;14.20;;
9968;SDS011;5025;48.890;9.278;2022-12-11T02:42:50;16.60;;;14.77;;
9968;SDS011;5025;48.890;9.278;2022-12-11T02:45:18;17.03;;;14.37;;
9968;SDS011;5025;48.890;9.278;2022-12-11T02:47:46;18.53;;;15.60;;
9968;SDS011;5025;48.890;9.278;2022-12-11T02:50:13;18.40;;;15.53;;
9968;SDS011;5025;48.890;9.278;2022-12-11T02:52:42;18.27;;;14.70;;
9968;SDS011;5025;48.890;9.278;2022-12-11T02:55:10;20.27;;;16.13;;
9968;SDS011;5025;48.890;9.278;2022-12-11T02:57:40;18.27;;;15.37;;
9968;SDS011;5025;48.890;9.278;2022-12-11T03:00:09;18.13;;;15.03;;
9968;SDS011;5025;48.890;9.278;2022-12-11T03:02:36;15.97;;;14.23;;
9968;SDS011;5025;48.890;9.278;2022-12-11T03:05:01;17.67;;;14.93;;
9968;SDS011;5025;48.890;9.278;2022-12-11T03:07:27;17.33;;;15.20;;
9968;SDS011;5025;48.890;9.278;2022-12-11T03:09:57;18.80;;;16.33;;
9968;SDS011;5025;48.890;9.278;2022-12-11T03:12:27;17.83;;;15.57;;
9968;SDS011;5025;48.890;9.278;2022-12-11T03:14:55;19.10;;;15.77;;
9968;SDS011;5025;48.890;9.278;2022-12-11T03:17:26;19.67;;;16.40;;
9968;SDS011;5025;48.890;9.278;2022-12-11T03:23:08;24.07;;;20.07;;
9968;SDS011;5025;48.890;9.278;2022-12-11T03:25:45;24.10;;;20.00;;
9968;SDS011;5025;48.890;9.278;2022-12-11T03:28:18;22.63;;;18.80;;
9968;SDS011;5025;48.890;9.278;2022-12-11T03:31:06;22.90;;;18.57;;
9968;SDS011;5025;48.890;9.278;2022-12-11T03:33:39;23.80;;;18.57;;
9968;SDS011;5025;48.890;9.278;2022-12-11T03:36:09;21.50;;;17.50;;
9968;SDS011;5025;48.890;9.278;2022-12-11T03:38:39;19.10;;;16.73;;
9968;SDS011;5025;48.890;9.278;2022-12-11T03:41:19;19.17;;;16.70;;
9968;SDS011;5025;48.890;9.278;2022-12-11T03:43:48;20.87;;;16.67;;
9968;SDS011;5025;48.890;9.278;2022-12-11T03:46:17;20.57;;;17.07;;
9968;SDS011;5025;48.890;9.278;2022-12-11T03:48:45;20.87;;;16.87;;
9968;SDS011;5025;48.890;9.278;2022-12-11T03:51:13;21.03;;;16.77;;
9968;SDS011;5025;48.890;9.278;2022-12-11T03:53:41;18.43;;;16.37;;
9968;SDS011;5025;48.890;9.278;2022-12-11T03:56:07;18.00;;;16.10;;
9968;SDS011;5025;48.890;9.278;2022-12-11T03:58:35;20.13;;;17.07;;
9968;SDS011;5025;48.890;9.278;2022-12-11T04:01:01;20.10;;;16.47;;
9968;SDS011;5025;48.890;9.278;2022-12-11T04:03:26;17.63;;;15.30;;
9968;SDS011;5025;48.890;9.278;2022-12-11T04:05:52;17.50;;;14.83;;
9968;SDS011;5025;48.890;9.278;2022-12-11T04:08:19;17.90;;;14.70;;
9968;SDS011;5025;48.890;9.278;2022-12-11T04:10:46;16.13;;;14.07;;
9968;SDS011;5025;48.890;9.278;2022-12-11T04:13:12;16.27;;;14.20;;
9968;SDS011;5025;48.890;9.278;2022-12-11T04:15:38;18.63;;;15.53;;
9968;SDS011;5025;48.890;9.278;2022-12-11T04:18:05;19.83;;;15.67;;
9968;SDS011;5025;48.890;9.278;2022-12-11T04:20:52;18.90;;;15.03;;
9968;SDS011;5025;48.890;9.278;2022-12-11T04:23:36;19.23;;;16.13;;
9968;SDS011;5025;48.890;9.278;2022-12-11T04:26:20;20.30;;;16.57;;
9968;SDS011;5025;48.890;9.278;2022-12-11T04:28:46;22.27;;;17.77;;
9968;SDS011;5025;48.890;9.278;2022-12-11T04:31:13;20.90;;;17.27;;
9968;SDS011;5025;48.890;9.278;2022-12-11T04:33:40;18.77;;;16.50;;
9968;SDS011;5025;48.890;9.278;2022-12-11T04:36:06;17.97;;;15.53;;
9968;SDS011;5025;48.890;9.278;2022-12-11T04:38:32;18.87;;;15.93;;
9968;SDS011;5025;48.890;9.278;2022-12-11T04:41:02;18.50;;;15.57;;
9968;SDS011;5025;48.890;9.278;2022-12-11T04:43:29;18.90;;;15.83;;
9968;SDS011;5025;48.890;9.278;2022-12-11T04:48:53;17.07;;;14.03;;
9968;SDS011;5025;48.890;9.278;2022-12-11T04:51:18;15.13;;;13.50;;
9968;SDS011;5025;48.890;9.278;2022-12-11T04:53:43;17.33;;;15.13;;
9968;SDS011;5025;48.890;9.278;2022-12-11T04:56:10;21.07;;;17.93;;
9968;SDS011;5025;48.890;9.278;2022-12-11T04:58:38;21.20;;;18.90;;
9968;SDS011;5025;48.890;9.278;2022-12-11T05:01:08;19.60;;;17.70;;
9968;SDS011;5025;48.890;9.278;2022-12-11T05:03:35;19.97;;;16.87;;
9968;SDS011;5025;48.890;9.278;2022-12-11T05:06:00;17.90;;;16.00;;
9968;SDS011;5025;48.890;9.278;2022-12-11T05:08:25;17.07;;;15.27;;
9968;SDS011;5025;48.890;9.278;2022-12-11T05:10:56;15.90;;;14.30;;
9968;SDS011;5025;48.890;9.278;2022-12-11T05:13:23;16.10;;;14.40;;
9968;SDS011;5025;48.890;9.278;2022-12-11T05:15:48;16.40;;;14.70;;
9968;SDS011;5025;48.890;9.278;2022-12-11T05:18:14;16.00;;;14.30;;
9968;SDS011;5025;48.890;9.278;2022-12-11T05:20:39;16.73;;;14.73;;
9968;SDS011;5025;48.890;9.278;2022-12-11T05:23:04;14.87;;;13.37;;
9968;SDS011;5025;48.890;9.278;2022-12-11T05:25:30;15.73;;;14.10;;
9968;SDS011;5025;48.890;9.278;2022-12-11T05:27:55;15.50;;;13.90;;
9968;SDS011;5025;48.890;9.278;2022-12-11T05:30:20;15.20;;;13.27;;
9968;SDS011;5025;48.890;9.278;2022-12-11T05:32:45;14.87;;;12.80;;
9968;SDS011;5025;48.890;9.278;2022-12-11T05:35:11;15.03;;;13.43;;
9968;SDS011;5025;48.890;9.278;2022-12-11T05:37:36;15.90;;;13.80;;
9968;SDS011;5025;48.890;9.278;2022-12-11T05:40:02;16.87;;;14.37;;
9968;SDS011;5025;48.890;9.278;2022-12-11T05:42:30;15.47;;;13.77;;
9968;SDS011;5025;48.890;9.278;2022-12-11T05:44:55;17.50;;;14.57;;
9968;SDS011;5025;48.890;9.278;2022-12-11T05:47:21;17.17;;;13.93;;
9968;SDS011;5025;48.890;9.278;2022-12-11T05:49:46;18.30;;;15.23;;
9968;SDS011;5025;48.890;9.278;2022-12-11T05:52:11;19.37;;;15.93;;
9968;SDS011;5025;48.890;9.278;2022-12-11T05:54:37;15.80;;;13.80;;
9968;SDS011;5025;48.890;9.278;2022-12-11T05:57:02;18.33;;;15.03;;
9968;SDS011;5025;48.890;9.278;2022-12-11T05:59:27;17.60;;;14.63;;
9968;SDS011;5025;48.890;9.278;2022-12-11T06:01:53;15.23;;;13.50;;
9968;SDS011;5025;48.890;9.278;2022-12-11T06:04:18;16.83;;;13.67;;
9968;SDS011;5025;48.890;9.278;2022-12-11T06:06:43;16.97;;;14.87;;
9968;SDS011;5025;48.890;9.278;2022-12-11T06:09:11;15.23;;;13.40;;
9968;SDS011;5025;48.890;9.278;2022-12-11T06:11:38;16.33;;;14.40;;
9968;SDS011;5025;48.890;9.278;2022-12-11T06:14:03;18.87;;;15.57;;
9968;SDS011;5025;48.890;9.278;2022-12-11T06:16:29;19.40;;;16.13;;
9968;SDS011;5025;48.890;9.278;2022-12-11T06:18:55;19.03;;;15.73;;
9968;SDS011;5025;48.890;9.278;2022-12-11T06:21:22;18.77;;;15.50;;
9968;SDS011;5025;48.890;9.278;2022-12-11T06:23:50;17.43;;;14.73;;
9968;SDS011;5025;48.890;9.278;2022-12-11T06:26:16;17.70;;;15.20;;
9968;SDS011;5025;48.890;9.278;2022-12-11T06:28:43;17.50;;;14.00;;
9968;SDS011;5025;48.890;9.278;2022-12-11T06:31:08;17.03;;;14.77;;
9968;SDS011;5025;48.890;9.278;2022-12-11T06:33:34;21.00;;;16.60;;
9968;SDS011;5025;48.890;9.278;2022-12-11T06:36:03;19.93;;;16.00;;
9968;SDS011;5025;48.890;9.278;2022-12-11T06:38:30;19.73;;;16.30;;
9968;SDS011;5025;48.890;9.278;2022-12-11T06:40:57;20.73;;;16.00;;
9968;SDS011;5025;48.890;9.278;2022-12-11T06:43:24;21.60;;;17.43;;
9968;SDS011;5025;48.890;9.278;2022-12-11T06:45:50;21.70;;;18.00;;
9968;SDS011;5025;48.890;9.278;2022-12-11T06:48:16;18.83;;;15.87;;
9968;SDS011;5025;48.890;9.278;2022-12-11T06:50:42;19.17;;;16.27;;
9968;SDS011;5025;48.890;9.278;2022-12-11T06:53:08;20.23;;;16.73;;
9968;SDS011;5025;48.890;9.278;2022-12-11T06:55:34;18.77;;;15.47;;
9968;SDS011;5025;48.890;9.278;2022-12-11T06:58:00;18.83;;;15.93;;
9968;SDS011;5025;48.890;9.278;2022-12-11T07:00:25;19.67;;;16.57;;
9968;SDS011;5025;48.890;9.278;2022-12-11T07:02:51;16.60;;;14.53;;
9968;SDS011;5025;48.890;9.278;2022-12-11T07:05:16;19.13;;;16.20;;
9968;SDS011;5025;48.890;9.278;2022-12-11T07:07:42;18.80;;;16.17;;
9968;SDS011;5025;48.890;9.278;2022-12-11T07:10:07;19.57;;;16.57;;
9968;SDS011;5025;48.890;9.278;2022-12-11T07:12:33;20.43;;;16.17;;
9968;SDS011;5025;48.890;9.278;2022-12-11T07:14:58;19.37;;;16.63;;
9968;SDS011;5025;48.890;9.278;2022-12-11T07:17:24;20.30;;;16.80;;
9968;SDS011;5025;48.890;9.278;2022-12-11T07:19:49;23.60;;;18.77;;
9968;SDS011;5025;48.890;9.278;2022-12-11T07:22:14;24.87;;;19.13;;
9968;SDS011;5025;48.890;9.278;2022-12-11T07:24:39;22.87;;;18.33;;
9968;SDS011;5025;48.890;9.278;2022-12-11T07:27:05;20.97;;;17.87;;
9968;SDS011;5025;48.890;9.278;2022-12-11T07:29:30;22.17;;;17.47;;
9968;SDS011;5025;48.890;9.278;2022-12-11T07:31:55;22.40;;;17.80;;
9968;SDS011;5025;48.890;9.278;2022-12-11T07:34:21;20.73;;;17.60;;
9968;SDS011;5025;48.890;9.278;2022-12-11T07:36:46;22.87;;;18.10;;
9968;SDS011;5025;48.890;9.278;2022-12-11T07:39:11;21.17;;;17.37;;
9968;SDS011;5025;48.890;9.278;2022-12-11T07:41:37;19.63;;;16.40;;
9968;SDS011;5025;48.890;9.278;2022-12-11T07:44:02;20.13;;;16.63;;
9968;SDS011;5025;48.890;9.278;2022-12-11T07:46:29;19.07;;;16.37;;
9968;SDS011;5025;48.890;9.278;2022-12-11T07:48:55;19.53;;;16.20;;
9968;SDS011;5025;48.890;9.278;2022-12-11T07:53:54;21.37;;;17.97;;
9968;SDS011;5025;48.890;9.278;2022-12-11T07:56:21;22.70;;;19.90;;
9968;SDS011;5025;48.890;9.278;2022-12-11T07:58:46;21.50;;;19.20;;
9968;SDS011;5025;48.890;9.278;2022-12-11T08:03:42;22.53;;;18.47;;
9968;SDS011;5025;48.890;9.278;2022-12-11T08:06:07;24.47;;;19.30;;
9968;SDS011;5025;48.890;9.278;2022-12-11T08:08:33;23.87;;;19.20;;
9968;SDS011;5025;48.890;9.278;2022-12-11T08:11:02;24.67;;;19.13;;
9968;SDS011;5025;48.890;9.278;2022-12-11T08:13:29;22.97;;;19.13;;
9968;SDS011;5025;48.890;9.278;2022-12-11T08:15:54;22.33;;;19.17;;
9968;SDS011;5025;48.890;9.278;2022-12-11T08:18:19;23.20;;;19.30;;
9968;SDS011;5025;48.890;9.278;2022-12-11T08:20:45;26.37;;;22.33;;
9968;SDS011;5025;48.890;9.278;2022-12-11T08:23:10;25.40;;;20.20;;
9968;SDS011;5025;48.890;9.278;2022-12-11T08:25:36;22.80;;;19.07;;
9968;SDS011;5025;48.890;9.278;2022-12-11T08:28:01;24.77;;;19.73;;
9968;SDS011;5025;48.890;9.278;2022-12-11T08:30:27;24.83;;;19.83;;
9968;SDS011;5025;48.890;9.278;2022-12-11T08:32:53;27.53;;;21.67;;
9968;SDS011;5025;48.890;9.278;2022-12-11T08:35:18;31.53;;;23.90;;
9968;SDS011;5025;48.890;9.278;2022-12-11T08:37:43;28.73;;;23.53;;
9968;SDS011;5025;48.890;9.278;2022-12-11T08:40:09;27.27;;;22.47;;
9968;SDS011;5025;48.890;9.278;2022-12-11T08:42:36;27.23;;;22.37;;
9968;SDS011;5025;48.890;9.278;2022-12-11T08:45:01;26.67;;;21.60;;
9968;SDS011;5025;48.890;9.278;2022-12-11T08:47:27;28.77;;;21.90;;
9968;SDS011;5025;48.890;9.278;2022-12-11T08:49:52;27.23;;;21.30;;
9968;SDS011;5025;48.890;9.278;2022-12-11T08:52:17;26.60;;;21.77;;
9968;SDS011;5025;48.890;9.278;2022-12-11T08:54:42;29.57;;;22.53;;
9968;SDS011;5025;48.890;9.278;2022-12-11T08:57:08;29.03;;;23.10;;
9968;SDS011;5025;48.890;9.278;2022-12-11T08:59:33;29.83;;;23.27;;
9968;SDS011;5025;48.890;9.278;2022-12-11T09:01:58;28.03;;;22.73;;
9968;SDS011;5025;48.890;9.278;2022-12-11T09:04:24;26.30;;;21.60;;
9968;SDS011;5025;48.890;9.278;2022-12-11T09:06:49;25.07;;;20.20;;
9968;SDS011;5025;48.890;9.278;2022-12-11T09:09:14;24.67;;;20.53;;
9968;SDS011;5025;48.890;9.278;2022-12-11T09:11:40;23.40;;;20.27;;
9968;SDS011;5025;48.890;9.278;2022-12-11T09:14:05;30.07;;;23.10;;
9968;SDS011;5025;48.890;9.278;2022-12-11T09:16:34;27.33;;;22.37;;
9968;SDS011;5025;48.890;9.278;2022-12-11T09:19:05;28.63;;;23.33;;
9968;SDS011;5025;48.890;9.278;2022-12-11T09:21:32;26.27;;;21.37;;
9968;SDS011;5025;48.890;9.278;2022-12-11T09:23:58;30.27;;;24.00;;
9968;SDS011;5025;48.890;9.278;2022-12-11T09:26:25;25.40;;;20.80;;
9968;SDS011;5025;48.890;9.278;2022-12-11T09:28:52;24.13;;;20.03;;
9968;SDS011;5025;48.890;9.278;2022-12-11T09:31:22;24.07;;;20.13;;
9968;SDS011;5025;48.890;9.278;2022-12-11T09:33:50;24.30;;;20.07;;
9968;SDS011;5025;48.890;9.278;2022-12-11T09:36:18;22.63;;;18.97;;
9968;SDS011;5025;48.890;9.278;2022-12-11T09:38:43;23.83;;;20.57;;
9968;SDS011;5025;48.890;9.278;2022-12-11T09:46:21;21.07;;;17.67;;
9968;SDS011;5025;48.890;9.278;2022-12-11T09:48:47;22.40;;;18.17;;
9968;SDS011;5025;48.890;9.278;2022-12-11T09:51:20;22.97;;;18.17;;
9968;SDS011;5025;48.890;9.278;2022-12-11T09:53:50;22.43;;;17.67;;
9968;SDS011;5025;48.890;9.278;2022-12-11T09:58:52;24.73;;;19.27;;
9968;SDS011;5025;48.890;9.278;2022-12-11T10:04:17;24.17;;;19.20;;
9968;SDS011;5025;48.890;9.278;2022-12-11T10:07:10;27.43;;;21.30;;
9968;SDS011;5025;48.890;9.278;2022-12-11T10:09:50;24.90;;;19.77;;
9968;SDS011;5025;48.890;9.278;2022-12-11T10:17:55;23.20;;;18.27;;
9968;SDS011;5025;48.890;9.278;2022-12-11T10:20:24;27.30;;;20.07;;
9968;SDS011;5025;48.890;9.278;2022-12-11T10:22:55;25.67;;;20.60;;
9968;SDS011;5025;48.890;9.278;2022-12-11T10:25:23;24.77;;;20.10;;
9968;SDS011;5025;48.890;9.278;2022-12-11T10:27:50;22.87;;;18.77;;
9968;SDS011;5025;48.890;9.278;2022-12-11T10:30:22;23.37;;;19.13;;
9968;SDS011;5025;48.890;9.278;2022-12-11T10:33:05;20.83;;;16.83;;
9968;SDS011;5025;48.890;9.278;2022-12-11T10:35:50;19.87;;;16.70;;
9968;SDS011;5025;48.890;9.278;2022-12-11T10:38:24;21.43;;;16.93;;
9968;SDS011;5025;48.890;9.278;2022-12-11T10:43:39;18.73;;;15.77;;
9968;SDS011;5025;48.890;9.278;2022-12-11T10:46:12;18.10;;;14.60;;
9968;SDS011;5025;48.890;9.278;2022-12-11T10:48:50;18.53;;;15.13;;
9968;SDS011;5025;48.890;9.278;2022-12-11T10:51:19;19.90;;;16.07;;
9968;SDS011;5025;48.890;9.278;2022-12-11T10:53:50;18.60;;;15.47;;
9968;SDS011;5025;48.890;9.278;2022-12-11T10:56:23;19.77;;;16.83;;
9968;SDS011;5025;48.890;9.278;2022-12-11T10:58:50;20.57;;;16.63;;
9968;SDS011;5025;48.890;9.278;2022-12-11T11:01:18;19.97;;;16.30;;
9968;SDS011;5025;48.890;9.278;2022-12-11T11:06:30;20.00;;;17.13;;
9968;SDS011;5025;48.890;9.278;2022-12-11T11:08:58;23.33;;;18.93;;
9968;SDS011;5025;48.890;9.278;2022-12-11T11:11:29;27.20;;;21.23;;
9968;SDS011;5025;48.890;9.278;2022-12-11T11:14:23;30.20;;;22.90;;
9968;SDS011;5025;48.890;9.278;2022-12-11T11:16:48;26.10;;;20.47;;
9968;SDS011;5025;48.890;9.278;2022-12-11T11:19:22;24.30;;;19.03;;
9968;SDS011;5025;48.890;9.278;2022-12-11T11:21:55;24.67;;;20.47;;
9968;SDS011;5025;48.890;9.278;2022-12-11T11:24:25;24.53;;;19.73;;
9968;SDS011;5025;48.890;9.278;2022-12-11T11:26:57;24.43;;;19.17;;
9968;SDS011;5025;48.890;9.278;2022-12-11T11:29:32;25.00;;;20.03;;
9968;SDS011;5025;48.890;9.278;2022-12-11T11:32:01;26.90;;;20.37;;
9968;SDS011;5025;48.890;9.278;2022-12-11T11:34:48;25.30;;;19.90;;
9968;SDS011;5025;48.890;9.278;2022-12-11T11:37:20;24.60;;;18.97;;
9968;SDS011;5025;48.890;9.278;2022-12-11T11:39:49;22.87;;;18.27;;
9968;SDS011;5025;48.890;9.278;2022-12-11T11:42:22;23.40;;;18.83;;
9968;SDS011;5025;48.890;9.278;2022-12-11T11:45:03;21.63;;;17.27;;
9968;SDS011;5025;48.890;9.278;2022-12-11T11:47:37;24.27;;;18.80;;
9968;SDS011;5025;48.890;9.278;2022-12-11T11:50:17;24.00;;;19.40;;
9968;SDS011;5025;48.890;9.278;2022-12-11T11:52:54;21.73;;;18.30;;
9968;SDS011;5025;48.890;9.278;2022-12-11T12:00:41;24.47;;;19.30;;
9968;SDS011;5025;48.890;9.278;2022-12-11T12:03:10;25.20;;;19.30;;
9968;SDS011;5025;48.890;9.278;2022-12-11T12:05:56;24.10;;;18.40;;
9968;SDS011;5025;48.890;9.278;2022-12-11T12:08:40;23.03;;;18.13;;
9968;SDS011;5025;48.890;9.278;2022-12-11T12:11:31;22.50;;;17.80;;
9968;SDS011;5025;48.890;9.278;2022-12-11T12:14:18;22.03;;;16.80;;
9968;SDS011;5025;48.890;9.278;2022-12-11T12:22:23;22.67;;;17.60;;
9968;SDS011;5025;48.890;9.278;2022-12-11T12:25:17;21.80;;;16.90;;
9968;SDS011;5025;48.890;9.278;2022-12-11T12:28:20;22.43;;;18.03;;
9968;SDS011;5025;48.890;9.278;2022-12-11T12:33:38;25.80;;;19.40;;
9968;SDS011;5025;48.890;9.278;2022-12-11T12:36:10;23.87;;;18.97;;
9968;SDS011;5025;48.890;9.278;2022-12-11T12:39:00;21.80;;;17.27;;
9968;SDS011;5025;48.890;9.278;2022-12-11T12:44:12;20.77;;;16.57;;
9968;SDS011;5025;48.890;9.278;2022-12-11T12:49:35;20.27;;;16.23;;
9968;SDS011;5025;48.890;9.278;2022-12-11T12:52:02;19.90;;;15.47;;
9968;SDS011;5025;48.890;9.278;2022-12-11T12:54:30;16.67;;;14.07;;
9968;SDS011;5025;48.890;9.278;2022-12-11T12:56:57;17.27;;;14.03;;
9968;SDS011;5025;48.890;9.278;2022-12-11T12:59:24;18.83;;;15.20;;
9968;SDS011;5025;48.890;9.278;2022-12-11T13:02:00;16.43;;;13.67;;
9968;SDS011;5025;48.890;9.278;2022-12-11T13:04:33;17.17;;;13.87;;
9968;SDS011;5025;48.890;9.278;2022-12-11T13:07:14;17.40;;;13.80;;
9968;SDS011;5025;48.890;9.278;2022-12-11T13:09:43;14.87;;;12.53;;
9968;SDS011;5025;48.890;9.278;2022-12-11T13:12:27;19.67;;;15.50;;
9968;SDS011;5025;48.890;9.278;2022-12-11T13:14:56;16.10;;;13.77;;
9968;SDS011;5025;48.890;9.278;2022-12-11T13:17:33;19.07;;;15.20;;
9968;SDS011;5025;48.890;9.278;2022-12-11T13:20:08;19.27;;;15.57;;
9968;SDS011;5025;48.890;9.278;2022-12-11T13:28:27;23.63;;;18.10;;
9968;SDS011;5025;48.890;9.278;2022-12-11T13:31:00;19.20;;;16.13;;
9968;SDS011;5025;48.890;9.278;2022-12-11T13:33:27;19.17;;;15.63;;
9968;SDS011;5025;48.890;9.278;2022-12-11T13:38:35;19.07;;;14.87;;
9968;SDS011;5025;48.890;9.278;2022-12-11T13:41:03;21.80;;;17.57;;
9968;SDS011;5025;48.890;9.278;2022-12-11T13:43:35;22.17;;;18.33;;
9968;SDS011;5025;48.890;9.278;2022-12-11T13:46:03;19.53;;;15.93;;
9968;SDS011;5025;48.890;9.278;2022-12-11T13:48:38;21.87;;;16.83;;
9968;SDS011;5025;48.890;9.278;2022-12-11T13:51:15;20.60;;;16.03;;
9968;SDS011;5025;48.890;9.278;2022-12-11T13:53:41;18.07;;;15.13;;
9968;SDS011;5025;48.890;9.278;2022-12-11T13:56:14;17.00;;;13.83;;
9968;SDS011;5025;48.890;9.278;2022-12-11T13:58:41;19.83;;;15.73;;
9968;SDS011;5025;48.890;9.278;2022-12-11T14:04:10;17.37;;;14.53;;
9968;SDS011;5025;48.890;9.278;2022-12-11T14:06:41;18.63;;;14.63;;
9968;SDS011;5025;48.890;9.278;2022-12-11T14:09:06;16.87;;;14.27;;
9968;SDS011;5025;48.890;9.278;2022-12-11T14:11:33;19.47;;;15.97;;
9968;SDS011;5025;48.890;9.278;2022-12-11T14:14:02;20.17;;;16.20;;
9968;SDS011;5025;48.890;9.278;2022-12-11T14:16:30;20.07;;;15.53;;
9968;SDS011;5025;48.890;9.278;2022-12-11T14:18:58;21.23;;;16.37;;
9968;SDS011;5025;48.890;9.278;2022-12-11T14:21:29;18.30;;;14.43;;
9968;SDS011;5025;48.890;9.278;2022-12-11T14:23:58;18.27;;;14.40;;
9968;SDS011;5025;48.890;9.278;2022-12-11T14:28:56;17.03;;;13.63;;
9968;SDS011;5025;48.890;9.278;2022-12-11T14:31:33;16.43;;;13.63;;
9968;SDS011;5025;48.890;9.278;2022-12-11T14:34:13;15.97;;;13.20;;
9968;SDS011;5025;48.890;9.278;2022-12-11T14:36:41;16.93;;;14.37;;
9968;SDS011;5025;48.890;9.278;2022-12-11T14:39:19;19.07;;;15.33;;
9968;SDS011;5025;48.890;9.278;2022-12-11T14:41:59;17.97;;;14.83;;
9968;SDS011;5025;48.890;9.278;2022-12-11T14:44:54;19.67;;;14.47;;
9968;SDS011;5025;48.890;9.278;2022-12-11T14:47:26;18.30;;;14.73;;
9968;SDS011;5025;48.890;9.278;2022-12-11T14:49:58;18.30;;;14.03;;
9968;SDS011;5025;48.890;9.278;2022-12-11T14:52:32;21.03;;;15.90;;
9968;SDS011;5025;48.890;9.278;2022-12-11T14:55:17;21.63;;;16.10;;
9968;SDS011;5025;48.890;9.278;2022-12-11T14:57:46;19.50;;;14.77;;
9968;SDS011;5025;48.890;9.278;2022-12-11T15:00:22;17.43;;;14.37;;
9968;SDS011;5025;48.890;9.278;2022-12-11T15:05:29;19.03;;;15.03;;
9968;SDS011;5025;48.890;9.278;2022-12-11T15:08:14;19.83;;;14.87;;
9968;SDS011;5025;48.890;9.278;2022-12-11T15:13:24;17.03;;;13.23;;
9968;SDS011;5025;48.890;9.278;2022-12-11T15:15:49;17.27;;;13.63;;
9968;SDS011;5025;48.890;9.278;2022-12-11T15:21:01;16.03;;;12.73;;
9968;SDS011;5025;48.890;9.278;2022-12-11T15:23:30;19.13;;;14.57;;
9968;SDS011;5025;48.890;9.278;2022-12-11T15:26:01;19.40;;;14.73;;
9968;SDS011;5025;48.890;9.278;2022-12-11T15:28:33;16.33;;;13.70;;
9968;SDS011;5025;48.890;9.278;2022-12-11T15:31:03;19.43;;;15.27;;
9968;SDS011;5025;48.890;9.278;2022-12-11T15:33:30;16.13;;;12.87;;
9968;SDS011;5025;48.890;9.278;2022-12-11T15:36:05;17.20;;;13.37;;
9968;SDS011;5025;48.890;9.278;2022-12-11T15:41:03;18.17;;;13.83;;
9968;SDS011;5025;48.890;9.278;2022-12-11T15:43:31;14.63;;;12.27;;
9968;SDS011;5025;48.890;9.278;2022-12-11T15:46:00;15.60;;;13.13;;
9968;SDS011;5025;48.890;9.278;2022-12-11T15:48:27;16.40;;;12.63;;
9968;SDS011;5025;48.890;9.278;2022-12-11T15:50:52;15.73;;;12.53;;
9968;SDS011;5025;48.890;9.278;2022-12-11T15:53:18;17.37;;;13.90;;
9968;SDS011;5025;48.890;9.278;2022-12-11T15:55:43;16.27;;;13.23;;
9968;SDS011;5025;48.890;9.278;2022-12-11T15:58:12;14.47;;;12.23;;
9968;SDS011;5025;48.890;9.278;2022-12-11T16:00:41;16.70;;;13.37;;
9968;SDS011;5025;48.890;9.278;2022-12-11T16:03:09;19.17;;;14.37;;
9968;SDS011;5025;48.890;9.278;2022-12-11T16:05:35;15.47;;;12.30;;
9968;SDS011;5025;48.890;9.278;2022-12-11T16:08:01;18.33;;;13.97;;
9968;SDS011;5025;48.890;9.278;2022-12-11T16:10:26;17.90;;;13.87;;
9968;SDS011;5025;48.890;9.278;2022-12-11T16:12:52;18.83;;;15.50;;
9968;SDS011;5025;48.890;9.278;2022-12-11T16:15:17;17.93;;;14.50;;
9968;SDS011;5025;48.890;9.278;2022-12-11T16:17:42;16.13;;;13.20;;
9968;SDS011;5025;48.890;9.278;2022-12-11T16:20:08;16.20;;;13.30;;
9968;SDS011;5025;48.890;9.278;2022-12-11T16:22:35;18.13;;;13.37;;